Terminal Aerodrome Forecast
Issued by NWS

Home | Current Version | Previous Version | Text Only | Print | Product List | Glossary Off
Versions: 1 2 3 4 5 6 7 8 9 10 11 12 13 14 15 16

240
FTUS43 KBIS 241728
TAFMOT
TAF
KMOT 241728Z 2418/2518 15024G33KT P6SM FEW120
     FM250100 16016G25KT P6SM BKN070
     FM250300 17012KT P6SM VCSH OVC060
     FM250900 17007KT P6SM SCT045
     FM251100 18011KT P6SM BKN045
     FM251400 21014KT P6SM SCT060=

USA.gov is the U.S. government's official web portal to all federal, state and local government web resources and services.